Time;durP1;ratioP1;P1;durP2;ratioP2;P2;SDS_P1;SDS_P2;PMS_P1;PMS_P2;Temp;Humidity;BMP_temperature;BMP_pressure;BME280_temperature;BME280_humidity;BME280_pressure;Samples;Min_cycle;Max_cycle;Signal;HPM_P1;HPM_P2
2022/12/12 00:01:48;;;;;;;31.92;12.00;;;1.10;99.90;;;;;;4995775;28;20034;-66
2022/12/12 00:04:14;;;;;;;35.17;11.82;;;1.20;99.90;;;;;;4996687;28;20030;-66
2022/12/12 00:06:39;;;;;;;30.40;12.18;;;1.20;99.90;;;;;;4997072;28;20033;-66
2022/12/12 00:09:05;;;;;;;35.97;13.20;;;1.20;99.90;;;;;;4996815;28;20038;-66
2022/12/12 00:11:31;;;;;;;33.70;13.23;;;1.10;99.90;;;;;;4995967;28;20077;-66
2022/12/12 00:13:57;;;;;;;33.13;12.68;;;0.90;99.90;;;;;;4997983;28;20030;-66
2022/12/12 00:16:23;;;;;;;37.28;13.77;;;0.90;99.90;;;;;;4995623;28;20025;-66
2022/12/12 00:18:49;;;;;;;35.97;14.63;;;0.80;99.90;;;;;;4995397;28;20033;-66
2022/12/12 00:21:17;;;;;;;49.05;14.38;;;0.70;99.90;;;;;;4995906;28;20034;-66
2022/12/12 00:23:43;;;;;;;37.88;13.52;;;0.70;99.90;;;;;;4995707;28;20080;-66
2022/12/12 00:26:19;;;;;;;39.72;14.55;;;0.80;99.90;;;;;;4995633;28;20033;-66
2022/12/12 00:28:45;;;;;;;39.88;13.93;;;0.80;99.90;;;;;;4996673;28;20032;-66
2022/12/12 00:31:10;;;;;;;40.92;15.77;;;0.70;99.90;;;;;;4996591;28;20026;-66
2022/12/12 00:33:36;;;;;;;40.33;14.93;;;0.80;99.90;;;;;;4996044;28;20030;-66
2022/12/12 00:36:01;;;;;;;45.38;15.52;;;0.70;99.90;;;;;;4996427;28;20093;-66
2022/12/12 00:38:27;;;;;;;31.95;12.80;;;0.60;99.90;;;;;;4996277;28;20105;-66
2022/12/12 00:40:58;;;;;;;40.42;14.93;;;0.70;99.90;;;;;;4995411;28;20022;-66
2022/12/12 00:43:24;;;;;;;38.30;13.98;;;0.80;99.90;;;;;;4996269;28;20026;-66
2022/12/12 00:45:50;;;;;;;40.00;16.15;;;0.90;99.90;;;;;;4995354;28;20026;-66
2022/12/12 00:48:16;;;;;;;39.45;15.13;;;0.80;99.90;;;;;;4995535;28;20027;-65
2022/12/12 00:50:42;;;;;;;39.33;13.88;;;0.80;99.90;;;;;;4996011;28;20106;-66
2022/12/12 00:53:12;;;;;;;41.55;14.85;;;0.80;99.90;;;;;;4994952;28;20049;-66
2022/12/12 00:55:38;;;;;;;40.00;14.27;;;0.80;99.90;;;;;;4995358;28;20077;-66
2022/12/12 00:58:04;;;;;;;38.88;15.38;;;0.80;99.90;;;;;;4994803;28;20026;-66
2022/12/12 01:00:29;;;;;;;43.92;13.93;;;0.80;99.90;;;;;;4994749;28;20064;-66
2022/12/12 01:02:56;;;;;;;35.45;14.15;;;0.90;99.90;;;;;;4994594;28;20034;-66
2022/12/12 01:05:22;;;;;;;43.75;15.82;;;0.90;99.90;;;;;;4995968;28;20022;-66
2022/12/12 01:07:48;;;;;;;43.40;15.57;;;0.80;99.90;;;;;;4994912;28;20049;-66
2022/12/12 01:10:13;;;;;;;46.70;17.33;;;0.70;99.90;;;;;;4994582;28;20486;-66
2022/12/12 01:12:39;;;;;;;41.75;15.98;;;0.70;99.90;;;;;;4994861;28;20018;-66
2022/12/12 01:15:06;;;;;;;46.10;16.30;;;0.60;99.90;;;;;;4994745;28;20029;-66
2022/12/12 01:17:36;;;;;;;41.88;15.50;;;0.70;99.90;;;;;;4995275;28;20023;-66
2022/12/12 01:20:17;;;;;;;48.10;15.88;;;0.60;99.90;;;;;;4994761;28;20367;-66
2022/12/12 01:22:42;;;;;;;49.90;16.02;;;0.60;99.90;;;;;;4994311;28;20030;-66
2022/12/12 01:25:10;;;;;;;43.63;15.70;;;0.70;99.90;;;;;;4994597;28;20032;-66
2022/12/12 01:27:35;;;;;;;42.70;15.85;;;0.80;99.90;;;;;;4995363;28;20034;-66
2022/12/12 01:30:01;;;;;;;43.33;14.95;;;0.80;99.90;;;;;;4995301;28;20040;-66
2022/12/12 01:32:28;;;;;;;53.08;16.40;;;0.70;99.90;;;;;;4994419;28;20030;-66
2022/12/12 01:34:53;;;;;;;45.95;16.20;;;0.70;99.90;;;;;;4995283;28;20030;-66
2022/12/12 01:37:19;;;;;;;46.08;16.88;;;0.80;99.90;;;;;;4994377;28;20029;-66
2022/12/12 01:39:45;;;;;;;44.38;15.80;;;0.90;99.90;;;;;;4995382;28;20101;-66
2022/12/12 01:42:16;;;;;;;46.50;17.23;;;1.00;99.90;;;;;;4994356;28;20049;-66
2022/12/12 01:44:43;;;;;;;45.42;15.02;;;1.00;99.90;;;;;;4994341;28;20042;-66
2022/12/12 01:47:11;;;;;;;45.13;15.70;;;1.00;99.90;;;;;;4994910;28;20065;-66
2022/12/12 01:49:36;;;;;;;37.90;14.77;;;0.90;99.90;;;;;;4993623;28;20031;-66
2022/12/12 01:52:07;;;;;;;46.70;16.38;;;0.90;99.90;;;;;;4994516;28;20053;-66
2022/12/12 01:54:44;;;;;;;47.65;16.67;;;0.90;99.90;;;;;;4995309;28;20025;-66
2022/12/12 01:57:14;;;;;;;37.13;15.20;;;0.90;99.90;;;;;;4994533;28;20026;-66
2022/12/12 01:59:40;;;;;;;46.95;16.10;;;1.00;99.90;;;;;;4993233;28;20117;-66
2022/12/12 02:02:07;;;;;;;46.42;18.35;;;1.00;99.90;;;;;;4993640;28;20115;-66
2022/12/12 02:04:33;;;;;;;44.55;17.05;;;0.80;99.90;;;;;;4993563;28;20054;-66
2022/12/12 02:06:58;;;;;;;44.42;17.48;;;0.70;99.90;;;;;;4994705;28;20030;-66
2022/12/12 02:09:24;;;;;;;51.55;17.60;;;0.50;99.90;;;;;;4994720;28;20033;-66
2022/12/12 02:11:52;;;;;;;47.47;16.70;;;0.50;99.90;;;;;;4994616;28;20057;-66
2022/12/12 02:14:35;;;;;;;48.28;15.88;;;0.60;99.90;;;;;;4993385;28;20425;-66
2022/12/12 02:17:07;;;;;;;37.53;15.50;;;0.70;99.90;;;;;;4994570;28;20021;-66
2022/12/12 02:19:48;;;;;;;43.63;15.48;;;0.80;99.90;;;;;;4994392;28;20026;-66
2022/12/12 02:22:42;;;;;;;43.85;16.10;;;0.80;99.90;;;;;;4994158;28;20129;-66
2022/12/12 02:25:31;;;;;;;46.92;16.38;;;0.80;99.90;;;;;;4993170;28;20026;-66
2022/12/12 02:28:37;;;;;;;42.13;16.52;;;0.90;99.90;;;;;;4994667;28;20030;-66
2022/12/12 02:31:13;;;;;;;51.58;16.40;;;0.80;99.90;;;;;;4994711;28;20078;-66
2022/12/12 02:33:59;;;;;;;46.47;15.48;;;0.80;99.90;;;;;;4993036;28;20019;-66
2022/12/12 02:36:46;;;;;;;42.50;15.23;;;0.80;99.90;;;;;;4993141;28;20030;-66
2022/12/12 02:39:21;;;;;;;46.80;16.33;;;0.80;99.90;;;;;;4993793;28;20031;-66
2022/12/12 02:41:55;;;;;;;39.28;15.32;;;0.90;99.90;;;;;;4992996;28;20026;-66
2022/12/12 02:44:33;;;;;;;44.03;15.98;;;1.00;99.90;;;;;;4993301;28;20030;-66
2022/12/12 02:47:12;;;;;;;42.92;15.20;;;0.90;99.90;;;;;;4994213;28;20026;-66
2022/12/12 02:49:51;;;;;;;48.67;16.40;;;0.90;99.90;;;;;;4993234;28;20023;-66
2022/12/12 02:52:17;;;;;;;46.72;16.75;;;0.90;99.90;;;;;;4992905;28;20026;-66
2022/12/12 02:54:43;;;;;;;54.75;15.80;;;0.90;99.90;;;;;;4992843;28;20557;-66
2022/12/12 02:57:15;;;;;;;47.60;17.50;;;0.70;99.90;;;;;;4993095;28;20118;-66
2022/12/12 02:59:44;;;;;;;45.42;16.00;;;0.60;99.90;;;;;;4992996;28;20117;-66
2022/12/12 03:02:35;;;;;;;44.28;16.20;;;0.70;99.90;;;;;;4994284;28;20045;-66
2022/12/12 03:08:28;;;;;;;54.05;18.33;;;0.80;99.90;;;;;;4994295;28;20129;-66
2022/12/12 03:10:56;;;;;;;50.55;16.08;;;0.70;99.90;;;;;;4994109;28;20096;-66
2022/12/12 03:13:22;;;;;;;55.40;18.30;;;0.80;99.90;;;;;;4996705;28;20367;-66
2022/12/12 03:15:57;;;;;;;51.42;16.92;;;0.80;99.90;;;;;;4997829;28;20029;-66
2022/12/12 03:18:31;;;;;;;44.30;16.73;;;0.80;99.90;;;;;;4996516;28;20466;-66
2022/12/12 03:21:21;;;;;;;43.25;16.00;;;0.90;99.90;;;;;;4998164;28;20042;-66
2022/12/12 03:23:52;;;;;;;48.90;18.05;;;0.90;99.90;;;;;;4997810;28;20141;-66
2022/12/12 03:26:28;;;;;;;49.00;17.25;;;0.80;99.90;;;;;;4998542;28;20029;-67
2022/12/12 03:29:15;;;;;;;47.97;17.25;;;0.70;99.90;;;;;;4997393;28;20116;-65
2022/12/12 03:31:45;;;;;;;48.10;16.98;;;0.60;99.90;;;;;;4997698;28;20094;-66
2022/12/12 03:34:18;;;;;;;47.08;17.95;;;0.70;99.90;;;;;;4996330;28;20018;-66
2022/12/12 03:36:50;;;;;;;51.13;17.92;;;0.70;99.90;;;;;;4996350;28;20037;-66
2022/12/12 03:39:28;;;;;;;54.20;18.80;;;0.60;99.90;;;;;;4997450;28;20027;-66
2022/12/12 03:42:01;;;;;;;41.30;15.60;;;0.50;99.90;;;;;;4997414;28;20037;-66
2022/12/12 03:44:39;;;;;;;49.45;17.40;;;0.60;99.90;;;;;;4997658;28;20030;-65
2022/12/12 03:47:14;;;;;;;53.45;17.77;;;0.50;99.90;;;;;;4997358;28;20034;-66
2022/12/12 03:49:51;;;;;;;47.30;17.27;;;0.60;99.90;;;;;;4996509;28;20030;-66
2022/12/12 03:52:25;;;;;;;49.97;17.95;;;0.70;99.90;;;;;;4997289;28;20029;-66
2022/12/12 03:55:11;;;;;;;50.90;19.92;;;0.60;99.90;;;;;;4996668;28;20109;-66
2022/12/12 03:58:10;;;;;;;45.03;17.17;;;0.50;99.90;;;;;;4995945;28;20030;-66
2022/12/12 04:00:40;;;;;;;40.80;15.60;;;0.60;99.90;;;;;;4997431;28;20085;-67
2022/12/12 04:03:16;;;;;;;45.25;17.10;;;0.80;99.90;;;;;;4997969;28;20026;-67
2022/12/12 04:14:33;;;;;;;50.00;16.50;;;0.80;99.90;;;;;;4998081;28;20073;-67
2022/12/12 04:17:02;;;;;;;50.67;17.45;;;0.70;99.90;;;;;;4996850;28;20033;-67
2022/12/12 04:28:33;;;;;;;42.03;15.80;;;1.00;99.90;;;;;;4997382;28;20061;-67
2022/12/12 04:31:03;;;;;;;46.28;17.10;;;0.90;99.90;;;;;;4996962;28;20023;-67
2022/12/12 04:33:38;;;;;;;46.03;14.88;;;0.90;99.90;;;;;;4995937;28;20019;-67
2022/12/12 04:36:07;;;;;;;45.42;17.55;;;1.00;99.90;;;;;;4997785;28;20018;-67
2022/12/12 04:38:34;;;;;;;53.17;18.55;;;0.90;99.90;;;;;;4996845;28;20026;-66
2022/12/12 04:41:01;;;;;;;47.63;17.80;;;0.90;99.90;;;;;;4997362;28;20037;-67
2022/12/12 04:43:32;;;;;;;53.05;16.80;;;0.90;99.90;;;;;;4995739;28;20019;-67
2022/12/12 04:46:06;;;;;;;46.20;18.65;;;0.90;99.90;;;;;;4995834;28;20023;-67
2022/12/12 04:48:46;;;;;;;48.90;16.85;;;0.90;99.90;;;;;;4995593;28;20022;-67
2022/12/12 04:51:16;;;;;;;45.67;17.05;;;0.90;99.90;;;;;;4997154;28;20050;-67
2022/12/12 04:53:48;;;;;;;47.80;16.98;;;0.80;99.90;;;;;;4995775;28;20022;-67
2022/12/12 04:56:18;;;;;;;57.25;18.70;;;0.70;99.90;;;;;;4995548;28;20049;-67
2022/12/12 04:58:44;;;;;;;54.85;17.00;;;0.70;99.90;;;;;;4995395;28;20026;-67
2022/12/12 05:01:43;;;;;;;53.13;19.38;;;0.60;99.90;;;;;;4995894;28;20094;-67
2022/12/12 05:04:31;;;;;;;49.60;18.38;;;0.70;99.90;;;;;;4997471;28;20378;-67
2022/12/12 05:07:06;;;;;;;49.53;16.20;;;0.70;99.90;;;;;;4997382;28;20031;-67
2022/12/12 05:09:32;;;;;;;54.83;17.00;;;0.70;99.90;;;;;;4995673;28;20037;-67
2022/12/12 05:11:58;;;;;;;59.60;17.70;;;0.70;99.90;;;;;;4995364;28;20018;-67
2022/12/12 05:14:23;;;;;;;48.17;17.83;;;0.70;99.90;;;;;;4996206;28;20069;-67
2022/12/12 05:16:52;;;;;;;51.30;17.63;;;0.80;99.90;;;;;;4996348;28;20022;-67
2022/12/12 05:19:18;;;;;;;53.78;18.58;;;0.70;99.90;;;;;;4995584;28;20026;-67
2022/12/12 05:21:44;;;;;;;47.65;17.55;;;0.70;99.90;;;;;;4995825;28;20080;-67
2022/12/12 05:24:09;;;;;;;46.00;17.15;;;0.60;99.90;;;;;;4994933;28;20026;-67
2022/12/12 05:26:35;;;;;;;51.10;17.65;;;0.70;99.90;;;;;;4996116;28;20108;-67
2022/12/12 05:29:01;;;;;;;48.40;18.08;;;0.70;99.90;;;;;;4994940;28;20061;-67
2022/12/12 05:31:26;;;;;;;51.60;17.52;;;0.80;99.90;;;;;;4995999;28;20473;-67
2022/12/12 05:33:52;;;;;;;51.78;17.25;;;0.90;99.90;;;;;;4994479;28;20123;-67
2022/12/12 05:36:18;;;;;;;51.75;17.92;;;0.90;99.90;;;;;;4995703;28;20033;-66
2022/12/12 05:38:43;;;;;;;51.78;18.35;;;0.90;99.90;;;;;;4993923;28;20033;-66
2022/12/12 05:41:10;;;;;;;50.08;18.27;;;0.80;99.90;;;;;;4993963;28;20441;-66
2022/12/12 05:43:36;;;;;;;55.88;17.55;;;0.90;99.90;;;;;;4994255;28;20085;-66
2022/12/12 05:46:02;;;;;;;49.45;18.70;;;0.90;99.90;;;;;;4994693;28;20022;-66
2022/12/12 05:48:27;;;;;;;55.05;19.60;;;0.80;99.90;;;;;;4993808;28;20081;-66
2022/12/12 05:50:53;;;;;;;47.47;19.48;;;0.70;99.90;;;;;;4993745;28;20045;-66
2022/12/12 05:53:19;;;;;;;51.50;19.90;;;0.80;99.90;;;;;;4993642;28;20034;-66
2022/12/12 05:55:45;;;;;;;53.72;17.92;;;0.70;99.90;;;;;;4993628;28;20026;-66
2022/12/12 05:58:10;;;;;;;57.25;19.65;;;0.70;99.90;;;;;;4994018;28;20022;-66
2022/12/12 06:00:36;;;;;;;60.05;19.20;;;0.80;99.90;;;;;;4996446;28;20046;-66
2022/12/12 06:03:02;;;;;;;50.42;18.73;;;0.80;99.90;;;;;;4994555;28;20026;-66
2022/12/12 06:05:27;;;;;;;55.28;18.63;;;0.80;99.90;;;;;;4993559;28;20073;-66
2022/12/12 06:07:53;;;;;;;48.55;18.48;;;0.80;99.90;;;;;;4994708;28;20018;-66
2022/12/12 06:10:18;;;;;;;59.05;19.60;;;0.60;99.90;;;;;;4994505;28;20034;-66
2022/12/12 06:12:44;;;;;;;53.67;17.98;;;0.60;99.90;;;;;;4995400;28;20023;-67
2022/12/12 06:15:10;;;;;;;59.47;20.02;;;0.70;99.90;;;;;;4994829;28;20018;-67
2022/12/12 06:17:35;;;;;;;60.33;20.67;;;0.70;99.90;;;;;;4994529;28;20031;-67
2022/12/12 06:20:02;;;;;;;55.30;18.85;;;0.70;99.90;;;;;;4994448;28;20057;-67
2022/12/12 06:22:27;;;;;;;53.85;17.60;;;0.70;99.90;;;;;;4994634;28;20113;-67
2022/12/12 06:24:53;;;;;;;58.75;19.88;;;0.70;99.90;;;;;;4994522;28;20102;-67
2022/12/12 06:27:19;;;;;;;56.97;19.52;;;0.70;99.90;;;;;;4993187;28;20042;-67
2022/12/12 06:29:44;;;;;;;62.33;19.35;;;0.90;99.90;;;;;;4993672;28;20026;-67
2022/12/12 06:32:10;;;;;;;57.22;18.83;;;0.80;99.90;;;;;;4993413;28;20050;-67
2022/12/12 06:34:37;;;;;;;58.88;18.92;;;0.90;99.90;;;;;;4993014;28;20081;-67
2022/12/12 06:37:04;;;;;;;52.97;18.77;;;0.80;99.90;;;;;;4993895;28;20026;-67
2022/12/12 06:39:30;;;;;;;55.35;19.80;;;0.80;99.90;;;;;;4993010;28;20034;-67
2022/12/12 06:41:55;;;;;;;58.90;19.27;;;0.80;99.90;;;;;;4994454;28;20030;-67
2022/12/12 06:44:21;;;;;;;59.17;19.00;;;0.70;99.90;;;;;;4993290;28;20030;-67
2022/12/12 06:46:46;;;;;;;59.78;19.45;;;0.60;99.90;;;;;;4993637;28;20054;-67
2022/12/12 06:49:12;;;;;;;59.10;19.88;;;0.60;99.90;;;;;;4993030;28;20022;-67
2022/12/12 06:51:42;;;;;;;53.88;18.90;;;0.60;99.90;;;;;;4992779;28;20109;-67
2022/12/12 06:54:10;;;;;;;64.78;20.30;;;0.70;99.90;;;;;;4994363;28;20026;-67
2022/12/12 06:56:35;;;;;;;55.38;19.77;;;0.80;99.90;;;;;;4993981;28;20018;-67
2022/12/12 06:59:01;;;;;;;66.55;19.02;;;0.80;99.90;;;;;;4992685;28;20149;-67
2022/12/12 07:01:26;;;;;;;57.47;18.10;;;0.80;99.90;;;;;;4992839;28;20042;-67
2022/12/12 07:03:52;;;;;;;51.08;19.70;;;0.80;99.90;;;;;;4993935;28;20077;-67
2022/12/12 07:06:20;;;;;;;52.05;19.55;;;0.70;99.90;;;;;;4992984;28;20032;-67
2022/12/12 07:08:46;;;;;;;59.50;19.25;;;0.70;99.90;;;;;;4994370;28;20062;-67
2022/12/12 07:11:18;;;;;;;60.63;20.02;;;0.80;99.90;;;;;;4994086;28;20028;-67
2022/12/12 07:13:44;;;;;;;56.08;18.10;;;0.80;99.90;;;;;;4992928;28;20023;-67
2022/12/12 07:16:10;;;;;;;54.85;19.85;;;0.80;99.90;;;;;;4993405;28;20065;-67
2022/12/12 07:18:36;;;;;;;63.10;18.73;;;0.90;99.90;;;;;;4992497;28;20113;-66
2022/12/12 07:21:04;;;;;;;54.70;17.83;;;0.90;99.90;;;;;;4992555;28;20037;-67
2022/12/12 07:23:30;;;;;;;59.45;20.65;;;0.90;99.90;;;;;;4993858;28;20023;-67
2022/12/12 07:25:56;;;;;;;53.20;18.73;;;0.90;99.90;;;;;;4992802;28;20023;-67
2022/12/12 07:28:21;;;;;;;51.90;18.70;;;0.90;99.90;;;;;;4992532;28;20389;-67
2022/12/12 07:30:48;;;;;;;55.83;18.42;;;0.90;99.90;;;;;;4993678;28;20046;-67
2022/12/12 07:33:18;;;;;;;58.35;19.55;;;1.00;99.90;;;;;;4993647;28;20052;-66
2022/12/12 07:35:44;;;;;;;53.45;18.73;;;1.00;99.90;;;;;;4993750;28;20023;-67
2022/12/12 07:38:10;;;;;;;54.90;18.67;;;0.90;99.90;;;;;;4993922;28;20033;-67
2022/12/12 07:40:36;;;;;;;53.08;17.98;;;0.70;99.90;;;;;;4993537;28;20113;-67
2022/12/12 07:43:02;;;;;;;52.22;19.67;;;0.70;99.90;;;;;;4992763;28;20030;-67
2022/12/12 07:45:28;;;;;;;51.65;18.05;;;0.70;99.90;;;;;;4992436;28;20026;-67
2022/12/12 07:47:54;;;;;;;54.05;18.70;;;0.80;99.90;;;;;;4993246;28;20031;-67
2022/12/12 07:50:19;;;;;;;60.63;19.08;;;0.80;99.90;;;;;;4993479;28;20037;-67
2022/12/12 07:52:45;;;;;;;61.72;20.35;;;0.80;99.90;;;;;;4992280;28;20041;-67
2022/12/12 07:55:11;;;;;;;66.38;21.55;;;0.80;99.90;;;;;;4992587;28;20482;-67
2022/12/12 07:57:37;;;;;;;55.95;20.65;;;0.70;99.90;;;;;;4993162;28;20077;-67
2022/12/12 08:00:09;;;;;;;61.75;21.35;;;0.70;99.90;;;;;;4996927;28;20041;-67
2022/12/12 08:02:34;;;;;;;55.90;19.47;;;0.70;99.90;;;;;;4995828;28;20022;-67
2022/12/12 08:05:00;;;;;;;46.85;17.48;;;0.70;99.90;;;;;;4996017;28;20328;-67
2022/12/12 08:07:25;;;;;;;58.33;18.92;;;0.80;99.90;;;;;;4996124;28;20094;-67
2022/12/12 08:09:51;;;;;;;54.83;19.60;;;0.80;99.90;;;;;;4995584;28;20036;-67
2022/12/12 08:12:17;;;;;;;57.15;19.83;;;0.80;99.90;;;;;;4996894;28;20474;-67
2022/12/12 08:14:42;;;;;;;53.67;18.92;;;0.80;99.90;;;;;;4997217;28;20029;-67
2022/12/12 08:17:08;;;;;;;55.03;19.40;;;0.90;99.90;;;;;;4995863;28;20082;-67
2022/12/12 08:19:33;;;;;;;51.53;18.10;;;1.00;99.90;;;;;;4995656;28;20037;-67
2022/12/12 08:21:59;;;;;;;49.40;18.00;;;1.10;99.90;;;;;;4996718;28;20034;-67
2022/12/12 08:24:24;;;;;;;54.47;19.00;;;1.20;99.90;;;;;;4995938;28;20031;-67
2022/12/12 08:26:51;;;;;;;53.60;18.15;;;1.30;99.90;;;;;;4995467;28;20053;-67
2022/12/12 08:29:16;;;;;;;51.40;17.02;;;1.20;99.90;;;;;;4995194;28;20053;-67
2022/12/12 08:31:42;;;;;;;48.60;17.08;;;1.30;99.90;;;;;;4996242;28;20022;-67
2022/12/12 08:34:08;;;;;;;49.03;16.80;;;1.30;99.90;;;;;;4996546;28;20044;-67
2022/12/12 08:36:34;;;;;;;48.63;18.45;;;1.40;99.90;;;;;;4995556;28;20042;-67
2022/12/12 08:39:09;;;;;;;45.83;18.15;;;1.30;99.90;;;;;;4995036;28;20470;-67
2022/12/12 08:41:36;;;;;;;43.58;17.25;;;1.30;99.90;;;;;;4995033;28;20022;-67
2022/12/12 08:44:03;;;;;;;47.47;17.30;;;1.40;99.90;;;;;;4995048;28;20026;-67
2022/12/12 08:46:29;;;;;;;48.38;18.10;;;1.50;99.90;;;;;;4996169;28;20110;-67
2022/12/12 08:48:54;;;;;;;46.97;17.00;;;1.50;99.90;;;;;;4994854;28;20109;-67
2022/12/12 08:51:20;;;;;;;54.55;18.08;;;1.60;99.90;;;;;;4996443;28;20018;-67
2022/12/12 08:53:47;;;;;;;46.90;16.45;;;1.50;99.90;;;;;;4995467;28;20489;-67
2022/12/12 08:56:14;;;;;;;41.33;16.35;;;1.40;99.90;;;;;;4994792;28;20022;-67
2022/12/12 08:58:40;;;;;;;51.78;17.75;;;1.50;99.90;;;;;;4994754;28;20026;-67
2022/12/12 09:01:20;;;;;;;50.60;16.83;;;1.40;99.90;;;;;;4995388;28;20061;-67
2022/12/12 09:03:46;;;;;;;55.58;19.13;;;1.50;99.90;;;;;;4996245;28;20052;-67
2022/12/12 09:06:13;;;;;;;50.90;17.67;;;1.60;99.90;;;;;;4995518;28;20088;-67
2022/12/12 09:08:39;;;;;;;51.33;17.60;;;1.70;99.90;;;;;;4995613;28;20027;-68
2022/12/12 09:11:06;;;;;;;43.58;16.67;;;1.80;99.90;;;;;;4995381;28;20026;-68
2022/12/12 09:13:32;;;;;;;53.95;19.10;;;1.80;99.90;;;;;;4996030;28;20026;-67
2022/12/12 09:15:57;;;;;;;56.47;18.65;;;1.90;99.90;;;;;;4994510;28;20037;-67
2022/12/12 09:18:23;;;;;;;53.15;19.35;;;1.80;99.90;;;;;;4995692;28;20014;-66
2022/12/12 09:20:54;;;;;;;54.15;18.25;;;1.70;99.90;;;;;;4994445;28;20049;-67
2022/12/12 09:23:20;;;;;;;52.67;16.80;;;1.70;99.90;;;;;;4995597;28;20053;-67
2022/12/12 09:25:46;;;;;;;51.92;18.23;;;1.80;99.90;;;;;;4994298;28;20026;-67
2022/12/12 09:28:14;;;;;;;51.67;17.95;;;1.80;99.90;;;;;;4995494;28;20030;-67
2022/12/12 09:30:40;;;;;;;53.78;18.33;;;1.70;99.90;;;;;;4994310;28;20076;-67
2022/12/12 09:33:06;;;;;;;50.13;19.50;;;1.80;99.90;;;;;;4995359;28;20029;-67
2022/12/12 09:35:32;;;;;;;49.03;18.85;;;1.90;99.90;;;;;;4994427;28;20023;-67
2022/12/12 09:37:57;;;;;;;57.53;20.70;;;1.70;99.90;;;;;;4995241;28;20026;-67
2022/12/12 09:40:32;;;;;;;55.83;19.98;;;1.50;99.90;;;;;;4994898;28;20037;-66
2022/12/12 09:42:58;;;;;;;51.47;19.20;;;1.40;99.90;;;;;;4992338;28;20061;-66
2022/12/12 09:45:24;;;;;;;64.38;20.08;;;1.50;99.90;;;;;;4993930;28;20030;-67
2022/12/12 09:47:54;;;;;;;53.72;18.58;;;1.30;99.90;;;;;;4995627;28;20462;-67
2022/12/12 09:50:37;;;;;;;50.80;17.77;;;1.40;99.90;;;;;;4994106;28;20022;-68
2022/12/12 09:53:09;;;;;;;55.95;17.77;;;1.60;99.90;;;;;;4993772;28;20029;-67
2022/12/12 09:55:46;;;;;;;50.00;18.63;;;1.70;99.90;;;;;;4993725;28;20023;-68
2022/12/12 09:58:47;;;;;;;51.50;18.80;;;1.60;99.90;;;;;;4994579;28;20413;-67
2022/12/12 10:01:12;;;;;;;53.08;20.90;;;1.50;99.90;;;;;;4993929;28;20077;-67
2022/12/12 10:04:03;;;;;;;43.97;18.48;;;1.40;99.90;;;;;;4995108;28;20015;-68
2022/12/12 10:06:41;;;;;;;45.00;17.55;;;1.50;99.90;;;;;;4994830;28;20077;-67
2022/12/12 10:09:55;;;;;;;51.17;17.38;;;1.70;99.90;;;;;;4994860;28;20558;-67
2022/12/12 10:12:21;;;;;;;49.05;16.88;;;1.80;99.90;;;;;;4976557;28;20042;-67
2022/12/12 10:14:53;;;;;;;50.28;16.65;;;1.90;99.90;;;;;;4995150;28;20023;-67
2022/12/12 10:17:28;;;;;;;51.72;18.42;;;2.00;99.90;;;;;;4994612;28;20026;-67
2022/12/12 10:20:03;;;;;;;52.08;18.67;;;2.00;99.90;;;;;;4993774;28;20036;-67
2022/12/12 10:22:49;;;;;;;53.15;17.95;;;1.90;99.90;;;;;;4994793;28;20029;-67
2022/12/12 10:25:36;;;;;;;48.20;17.38;;;1.50;99.90;;;;;;4994591;28;20449;-67
2022/12/12 10:28:14;;;;;;;51.08;18.90;;;1.40;99.90;;;;;;4993145;28;20030;-67
2022/12/12 10:31:16;;;;;;;47.70;17.83;;;1.40;99.90;;;;;;4993029;28;20037;-67
2022/12/12 10:33:51;;;;;;;;;;;1.50;99.90;;;;;;4993540;28;20019;-67
2022/12/12 10:36:44;;;;;;;49.33;17.35;;;1.50;99.90;;;;;;4994346;28;19906;-67
2022/12/12 10:39:27;;;;;;;55.47;18.45;;;1.60;99.90;;;;;;4993726;28;20073;-66
2022/12/12 10:42:26;;;;;;;56.00;18.55;;;1.60;99.90;;;;;;4992985;28;20081;-66
2022/12/12 10:45:26;;;;;;;48.88;17.95;;;1.80;99.90;;;;;;4983591;28;20092;-66
2022/12/12 10:47:51;;;;;;;56.50;19.48;;;1.80;99.90;;;;;;4994162;28;20029;-67
2022/12/12 10:50:47;;;;;;;49.53;18.85;;;2.00;99.90;;;;;;4992669;28;20038;-67
2022/12/12 10:53:13;;;;;;;50.80;18.50;;;2.10;99.90;;;;;;4992919;28;20022;-67
2022/12/12 10:56:02;;;;;;;48.88;17.80;;;2.20;99.90;;;;;;4993030;28;20042;-67
2022/12/12 10:58:40;;;;;;;50.78;17.95;;;2.20;99.90;;;;;;4993955;28;20129;-67
2022/12/12 11:01:20;;;;;;;55.72;17.65;;;2.20;99.90;;;;;;4992891;28;20121;-67
2022/12/12 11:03:50;;;;;;;46.63;17.33;;;2.20;99.90;;;;;;4993622;28;20121;-67
2022/12/12 11:06:28;;;;;;;46.10;18.00;;;2.30;99.90;;;;;;4994479;28;20026;-67
2022/12/12 11:08:56;;;;;;;46.78;17.75;;;2.30;99.90;;;;;;4993833;28;20026;-66
2022/12/12 11:11:24;;;;;;;54.15;18.30;;;2.30;99.90;;;;;;4993950;28;20027;-67
2022/12/12 11:17:23;;;;;;;55.37;19.90;;;2.20;99.90;;;;;;4994748;28;20065;-66
2022/12/12 11:19:51;;;;;;;54.88;19.33;;;2.20;99.90;;;;;;4994477;28;20088;-66
2022/12/12 11:22:17;;;;;;;46.58;18.02;;;1.90;99.90;;;;;;4994172;28;20469;-66
2022/12/12 11:24:45;;;;;;;44.78;18.77;;;1.80;99.90;;;;;;4992796;28;20038;-66
2022/12/12 11:27:22;;;;;;;50.45;19.08;;;1.70;99.90;;;;;;4994149;28;20099;-66
2022/12/12 11:29:50;;;;;;;52.35;18.50;;;1.60;99.90;;;;;;4992805;28;20069;-66
2022/12/12 11:32:22;;;;;;;48.70;18.27;;;1.60;99.90;;;;;;4993003;28;20026;-66
2022/12/12 11:34:55;;;;;;;51.80;17.17;;;1.50;99.90;;;;;;4998616;28;20121;-66
2022/12/12 11:37:27;;;;;;;50.38;17.77;;;1.60;99.90;;;;;;4996826;28;20073;-66
2022/12/12 11:39:55;;;;;;;44.70;16.70;;;1.50;99.90;;;;;;4998037;28;20478;-66
2022/12/12 11:42:27;;;;;;;44.60;15.18;;;1.60;99.90;;;;;;4997123;28;20113;-66
2022/12/12 11:45:09;;;;;;;42.80;16.80;;;1.50;99.90;;;;;;4997103;28;20080;-66
2022/12/12 11:47:40;;;;;;;44.00;15.27;;;1.50;99.90;;;;;;4996690;28;20058;-66
2022/12/12 11:50:26;;;;;;;40.70;14.77;;;1.50;99.90;;;;;;4996712;28;20026;-66
2022/12/12 11:53:02;;;;;;;43.30;14.10;;;1.60;99.90;;;;;;4996741;28;20022;-66
2022/12/12 11:55:50;;;;;;;35.67;13.35;;;1.70;99.90;;;;;;4997639;28;20113;-66
2022/12/12 11:58:44;;;;;;;37.80;13.73;;;2.00;99.90;;;;;;4996707;28;20113;-66
2022/12/12 12:01:18;;;;;;;33.05;12.75;;;2.10;99.90;;;;;;4996268;28;20421;-66
2022/12/12 12:04:05;;;;;;;41.35;15.20;;;2.10;99.90;;;;;;4996319;28;20018;-66
2022/12/12 12:06:33;;;;;;;36.83;14.45;;;2.10;99.90;;;;;;4996490;28;20470;-66
2022/12/12 12:09:21;;;;;;;41.03;13.35;;;2.20;99.90;;;;;;4996051;28;20029;-66
2022/12/12 12:12:00;;;;;;;35.90;14.23;;;2.00;99.90;;;;;;4996316;28;20026;-66
2022/12/12 12:14:25;;;;;;;37.75;15.52;;;2.00;99.90;;;;;;4997195;28;20053;-67
2022/12/12 12:16:54;;;;;;;33.75;13.60;;;1.90;99.90;;;;;;4997620;28;20046;-66
2022/12/12 12:20:00;;;;;;;38.00;14.25;;;1.90;99.90;;;;;;4995450;28;20030;-66
2022/12/12 12:22:56;;;;;;;38.53;15.05;;;1.70;99.90;;;;;;4943842;28;20043;-66
2022/12/12 12:25:43;;;;;;;36.38;13.68;;;1.50;99.90;;;;;;4996697;28;20069;-67
2022/12/12 12:28:27;;;;;;;32.65;13.38;;;1.40;99.90;;;;;;4996859;28;20029;-66
2022/12/12 12:30:56;;;;;;;39.30;13.63;;;1.50;99.90;;;;;;4996480;28;20022;-66
2022/12/12 12:33:44;;;;;;;39.95;13.38;;;1.60;99.90;;;;;;4996868;28;20022;-66
2022/12/12 12:36:26;;;;;;;39.45;13.15;;;1.70;99.90;;;;;;4988524;28;20117;-66
2022/12/12 12:39:01;;;;;;;38.30;14.47;;;1.80;99.90;;;;;;4995760;28;20073;-66
2022/12/12 12:41:41;;;;;;;36.88;13.07;;;1.70;99.90;;;;;;4996446;28;20053;-66
2022/12/12 12:44:12;;;;;;;33.40;12.73;;;1.70;99.90;;;;;;4994510;28;20129;-66
2022/12/12 12:46:45;;;;;;;37.33;13.27;;;1.70;99.90;;;;;;4996437;28;20028;-66
2022/12/12 12:49:21;;;;;;;53.80;19.35;;;1.60;99.90;;;;;;4995609;28;20034;-66
2022/12/12 12:52:14;;;;;;;31.30;11.43;;;1.60;99.90;;;;;;4995035;28;20026;-67
2022/12/12 12:54:42;;;;;;;33.75;12.65;;;1.60;99.90;;;;;;4996284;28;20482;-66
2022/12/12 12:57:20;;;;;;;39.50;13.27;;;1.60;99.90;;;;;;4994877;28;20044;-67
2022/12/12 12:59:52;;;;;;;38.15;12.60;;;1.50;99.90;;;;;;4995195;28;20113;-66
2022/12/12 13:02:43;;;;;;;34.65;10.90;;;1.50;99.90;;;;;;4996031;28;20065;-67
2022/12/12 13:05:34;;;;;;;32.38;12.07;;;1.50;99.90;;;;;;4995600;28;20030;-66
2022/12/12 13:08:12;;;;;;;41.47;13.70;;;1.40;99.90;;;;;;4994765;28;20026;-66
2022/12/12 13:10:44;;;;;;;38.70;13.48;;;1.50;99.90;;;;;;4995675;28;20037;-67
2022/12/12 13:13:14;;;;;;;34.67;13.00;;;1.60;99.90;;;;;;4995838;28;20018;-66
2022/12/12 13:15:48;;;;;;;38.33;14.13;;;1.60;99.90;;;;;;4995745;28;20073;-66
2022/12/12 13:18:16;;;;;;;39.47;13.10;;;1.50;99.90;;;;;;4994569;28;20027;-66
2022/12/12 13:20:54;;;;;;;35.75;12.23;;;1.50;99.90;;;;;;4994385;28;20117;-67
2022/12/12 13:23:40;;;;;;;40.70;14.27;;;1.60;99.90;;;;;;4994426;28;20054;-66
2022/12/12 13:26:31;;;;;;;34.00;12.55;;;1.50;99.90;;;;;;4995649;28;20073;-66